createdAt,value
2022-08-17T00:01:52.004Z,7.45
2022-08-17T00:04:21.090Z,7.47
2022-08-17T00:06:49.540Z,7.40
2022-08-17T00:09:19.026Z,8.40
2022-08-17T00:12:41.652Z,7.00
2022-08-17T00:14:36.171Z,7.30
2022-08-17T00:17:04.680Z,7.15
2022-08-17T00:19:32.727Z,10.50
2022-08-17T00:22:33.972Z,6.95
2022-08-17T00:24:50.276Z,6.70
2022-08-17T00:27:18.001Z,9.05
2022-08-17T00:29:46.024Z,7.05
2022-08-17T00:33:11.986Z,7.22
2022-08-17T00:35:06.380Z,9.15
2022-08-17T00:37:32.986Z,6.72
2022-08-17T00:39:59.671Z,7.77
2022-08-17T00:42:30.831Z,6.13
2022-08-17T00:44:58.160Z,8.25
2022-08-17T00:47:24.790Z,8.55
2022-08-17T00:49:51.844Z,7.90
2022-08-17T00:52:23.168Z,9.02
2022-08-17T00:54:54.036Z,6.60
2022-08-17T00:57:33.005Z,6.55
2022-08-17T01:00:09.711Z,7.95
2022-08-17T01:02:51.486Z,11.90
2022-08-17T01:05:23.563Z,8.45
2022-08-17T01:07:52.755Z,6.47
2022-08-17T01:10:57.142Z,7.85
2022-08-17T01:13:16.970Z,7.10
2022-08-17T01:15:55.480Z,6.93
2022-08-17T01:18:22.157Z,8.93
2022-08-17T01:20:53.190Z,7.50
2022-08-17T01:23:23.656Z,7.45
2022-08-17T01:25:52.242Z,9.23
2022-08-17T01:28:36.413Z,7.32
2022-08-17T01:31:08.414Z,9.10
2022-08-17T01:33:35.595Z,7.22
2022-08-17T01:36:04.078Z,6.40
2022-08-17T01:38:32.012Z,8.13
2022-08-17T01:41:03.252Z,6.93
2022-08-17T01:43:43.497Z,7.95
2022-08-17T01:46:17.145Z,6.90
2022-08-17T01:48:47.420Z,8.63
2022-08-17T01:51:15.635Z,8.50
2022-08-17T01:53:47.585Z,9.43
2022-08-17T01:56:17.301Z,6.80
2022-08-17T01:58:44.061Z,8.07
2022-08-17T02:01:14.197Z,6.83
2022-08-17T02:03:41.971Z,8.82
2022-08-17T02:06:27.714Z,9.15
2022-08-17T02:09:01.801Z,9.32
2022-08-17T02:11:32.449Z,6.82
2022-08-17T02:14:03.251Z,7.03
2022-08-17T02:16:36.917Z,8.32
2022-08-17T02:19:07.562Z,6.45
2022-08-17T02:21:34.733Z,7.15
2022-08-17T02:24:01.771Z,7.00
2022-08-17T02:26:28.419Z,7.53
2022-08-17T02:28:55.174Z,8.57
2022-08-17T02:31:21.864Z,7.43
2022-08-17T02:34:00.443Z,8.50
2022-08-17T02:36:32.993Z,7.32
2022-08-17T02:39:01.601Z,7.88
2022-08-17T02:41:28.320Z,9.80
2022-08-17T02:43:54.980Z,8.10
2022-08-17T02:46:22.624Z,6.93
2022-08-17T02:48:49.267Z,7.28
2022-08-17T02:51:15.922Z,6.40
2022-08-17T02:53:42.487Z,7.78
2022-08-17T02:56:09.072Z,8.80
2022-08-17T02:58:36.264Z,8.57
2022-08-17T03:01:06.106Z,6.72
2022-08-17T03:03:32.812Z,8.38
2022-08-17T03:05:59.398Z,7.90
2022-08-17T03:08:26.036Z,7.47
2022-08-17T03:10:52.878Z,7.43
2022-08-17T03:13:20.170Z,9.93
2022-08-17T03:15:47.713Z,7.18
2022-08-17T03:20:54.487Z,7.25
2022-08-17T03:23:24.450Z,6.75
2022-08-17T03:25:53.946Z,6.78
2022-08-17T03:28:22.612Z,7.57
2022-08-17T03:30:53.394Z,7.30
2022-08-17T03:33:20.320Z,8.82
2022-08-17T03:35:47.186Z,6.85
2022-08-17T03:38:17.589Z,7.28
2022-08-17T03:40:57.432Z,8.18
2022-08-17T03:43:28.244Z,8.95
2022-08-17T03:46:28.636Z,7.03
2022-08-17T03:49:18.486Z,7.85
2022-08-17T03:52:03.796Z,8.75
2022-08-17T03:54:52.104Z,7.97
2022-08-17T03:57:19.281Z,8.15
2022-08-17T03:59:45.992Z,8.20
2022-08-17T04:02:25.550Z,7.65
2022-08-17T04:04:57.860Z,9.68
2022-08-17T04:07:28.681Z,7.80
2022-08-17T04:09:55.689Z,7.70
2022-08-17T04:12:24.122Z,7.95
2022-08-17T04:14:52.586Z,7.20
2022-08-17T04:17:22.907Z,6.80
2022-08-17T04:19:49.590Z,6.78
2022-08-17T04:22:33.235Z,9.30
2022-08-17T04:25:20.808Z,6.68
2022-08-17T04:27:48.858Z,7.45
2022-08-17T04:30:17.741Z,9.30
2022-08-17T04:33:06.389Z,8.43
2022-08-17T04:35:43.077Z,7.10
2022-08-17T04:38:13.119Z,7.43
2022-08-17T04:40:58.621Z,7.45
2022-08-17T04:43:27.109Z,7.65
2022-08-17T04:46:00.498Z,8.10
2022-08-17T04:48:35.410Z,7.07
2022-08-17T04:51:24.469Z,6.93
2022-08-17T04:53:57.833Z,8.85
2022-08-17T04:56:26.332Z,9.07
2022-08-17T04:58:55.959Z,6.30
2022-08-17T05:01:24.809Z,6.57
2022-08-17T05:03:56.378Z,7.28
2022-08-17T05:06:23.288Z,7.82
2022-08-17T05:08:49.871Z,8.50
2022-08-17T05:11:16.693Z,11.35
2022-08-17T05:13:43.619Z,12.30
2022-08-17T05:16:10.493Z,8.37
2022-08-17T05:18:39.938Z,6.03
2022-08-17T05:21:07.269Z,9.20
2022-08-17T05:23:42.753Z,6.20
2022-08-17T05:26:19.834Z,7.60
2022-08-17T05:28:53.649Z,7.53
2022-08-17T05:31:20.988Z,6.70
2022-08-17T05:33:47.740Z,5.83
2022-08-17T05:36:43.287Z,8.52
2022-08-17T05:39:02.497Z,8.38
2022-08-17T05:41:29.075Z,5.72
2022-08-17T05:43:56.530Z,7.38
2022-08-17T05:46:35.670Z,5.85
2022-08-17T05:49:08.044Z,7.45
2022-08-17T05:51:57.013Z,7.97
2022-08-17T05:54:29.619Z,7.35
2022-08-17T05:57:18.085Z,11.00
2022-08-17T06:00:01.035Z,8.18
2022-08-17T06:02:47.862Z,8.38
2022-08-17T06:08:07.553Z,7.72
2022-08-17T06:10:53.370Z,6.05
2022-08-17T06:13:32.107Z,7.70
2022-08-17T06:16:17.796Z,11.38
2022-08-17T06:19:15.989Z,7.35
2022-08-17T06:21:47.829Z,6.75
2022-08-17T06:24:29.104Z,7.47
2022-08-17T06:27:06.317Z,7.20
2022-08-17T06:33:40.539Z,5.13
2022-08-17T06:39:01.849Z,6.75
2022-08-17T06:42:00.437Z,8.38
2022-08-17T06:44:51.024Z,11.38
2022-08-17T06:47:47.642Z,12.63
2022-08-17T06:50:24.172Z,8.82
2022-08-17T06:53:03.756Z,17.93
2022-08-17T06:55:38.248Z,14.88
2022-08-17T06:58:15.664Z,10.40
2022-08-17T07:00:47.189Z,8.55
2022-08-17T07:03:28.203Z,11.07
2022-08-17T07:06:00.981Z,8.48
2022-08-17T07:08:44.695Z,10.60
2022-08-17T07:11:16.379Z,7.35
2022-08-17T07:13:51.338Z,9.52
2022-08-17T07:16:30.576Z,12.40
2022-08-17T07:18:59.685Z,8.35
2022-08-17T07:21:38.742Z,10.10
2022-08-17T07:24:29.170Z,7.35
2022-08-17T07:27:17.211Z,8.70
2022-08-17T07:30:03.782Z,8.70
2022-08-17T07:33:01.069Z,10.13
2022-08-17T07:35:37.528Z,7.68
2022-08-17T07:38:25.506Z,9.25
2022-08-17T07:40:57.870Z,9.25
2022-08-17T07:43:42.937Z,11.80
2022-08-17T07:46:43.009Z,7.88
2022-08-17T07:49:09.568Z,9.77
2022-08-17T07:51:45.773Z,10.87
2022-08-17T07:54:15.268Z,7.70
2022-08-17T07:56:41.870Z,13.02
2022-08-17T07:59:12.897Z,8.67
2022-08-17T08:01:44.326Z,15.35
2022-08-17T08:04:43.206Z,8.38
2022-08-17T08:07:21.626Z,9.32
2022-08-17T08:10:11.374Z,9.82
2022-08-17T08:12:43.424Z,14.48
2022-08-17T08:15:19.097Z,13.55
2022-08-17T08:18:04.299Z,12.55
2022-08-17T08:20:53.072Z,11.07
2022-08-17T08:23:25.688Z,10.15
2022-08-17T08:26:07.322Z,13.27
2022-08-17T08:29:00.918Z,10.18
2022-08-17T08:31:42.063Z,12.07
2022-08-17T08:34:58.907Z,13.13
2022-08-17T08:37:20.616Z,10.50
2022-08-17T08:40:15.115Z,14.02
2022-08-17T08:42:52.867Z,11.38
2022-08-17T08:45:24.305Z,11.68
2022-08-17T08:47:53.959Z,10.57
2022-08-17T08:50:38.108Z,10.88
2022-08-17T08:53:11.067Z,11.70
2022-08-17T08:55:56.116Z,12.55
2022-08-17T08:58:43.635Z,12.85
2022-08-17T09:01:20.983Z,11.98
2022-08-17T09:04:25.538Z,13.70
2022-08-17T09:06:57.990Z,11.77
2022-08-17T09:10:03.666Z,12.45
2022-08-17T09:12:35.741Z,12.90
2022-08-17T09:15:25.681Z,11.52
2022-08-17T09:19:01.293Z,16.13
2022-08-17T09:21:01.015Z,13.68
2022-08-17T09:23:33.098Z,14.52
2022-08-17T09:26:37.057Z,13.23
2022-08-17T09:29:11.712Z,12.95
2022-08-17T09:31:57.377Z,12.57
2022-08-17T09:34:52.735Z,12.98
2022-08-17T09:37:30.848Z,13.45
2022-08-17T09:40:14.009Z,15.73
2022-08-17T09:42:55.688Z,13.48
2022-08-17T09:45:28.388Z,14.73
2022-08-17T09:48:22.911Z,15.88
2022-08-17T09:51:22.794Z,12.98
2022-08-17T09:53:50.877Z,16.17
2022-08-17T09:56:47.055Z,15.32
2022-08-17T09:59:38.709Z,13.18
2022-08-17T10:02:31.254Z,14.73
2022-08-17T10:05:09.878Z,14.00
2022-08-17T10:07:56.089Z,13.52
2022-08-17T10:10:56.865Z,13.47
2022-08-17T10:13:41.297Z,16.27
2022-08-17T10:16:43.946Z,13.47
2022-08-17T10:19:20.026Z,15.05
2022-08-17T10:22:32.473Z,16.77
2022-08-17T10:25:23.459Z,14.88
2022-08-17T10:27:57.844Z,15.40
2022-08-17T10:30:27.484Z,15.90
2022-08-17T10:33:01.969Z,15.27
2022-08-17T10:35:40.550Z,15.90
2022-08-17T10:38:33.589Z,16.67
2022-08-17T10:41:18.965Z,16.95
2022-08-17T10:44:38.414Z,16.05
2022-08-17T10:47:05.964Z,15.63
2022-08-17T10:49:35.896Z,15.35
2022-08-17T10:52:20.984Z,18.25
2022-08-17T10:54:47.631Z,15.85
2022-08-17T10:57:29.459Z,18.73
2022-08-17T10:59:58.827Z,15.85
2022-08-17T11:02:28.040Z,17.42
2022-08-17T11:05:06.417Z,19.00
2022-08-17T11:07:33.055Z,15.82
2022-08-17T11:10:21.543Z,16.27
2022-08-17T11:13:28.118Z,15.25
2022-08-17T11:18:43.477Z,15.95
2022-08-17T11:21:35.001Z,16.13
2022-08-17T11:24:19.261Z,14.93
2022-08-17T11:27:12.129Z,15.93
2022-08-17T11:29:58.137Z,15.70
2022-08-17T11:32:34.047Z,15.13
2022-08-17T11:35:22.041Z,16.63
2022-08-17T11:38:28.425Z,17.67
2022-08-17T11:43:49.883Z,16.30
2022-08-17T11:46:55.353Z,17.58
2022-08-17T11:49:55.543Z,19.00
2022-08-17T11:52:39.789Z,17.38
2022-08-17T11:55:33.989Z,18.00
2022-08-17T11:58:29.731Z,19.10
2022-08-17T12:00:59.805Z,19.58
2022-08-17T12:03:55.231Z,18.65
2022-08-17T12:06:41.259Z,19.13
2022-08-17T12:09:16.204Z,22.20
2022-08-17T12:12:12.445Z,27.77
2022-08-17T12:17:41.818Z,22.20
2022-08-17T12:20:35.653Z,20.80
2022-08-17T12:23:11.297Z,18.73
2022-08-17T12:25:43.676Z,18.67
2022-08-17T12:28:31.443Z,19.65
2022-08-17T12:31:08.567Z,20.15
2022-08-17T12:33:40.365Z,22.98
2022-08-17T12:36:08.972Z,22.00
2022-08-17T12:38:37.854Z,21.70
2022-08-17T12:41:26.299Z,19.77
2022-08-17T12:44:05.704Z,21.48
2022-08-17T12:46:45.070Z,21.40
2022-08-17T12:49:28.193Z,21.52
2022-08-17T12:52:03.006Z,20.90
2022-08-17T12:54:39.180Z,24.27
2022-08-17T12:57:13.558Z,19.77
2022-08-17T12:59:43.536Z,28.35
2022-08-17T13:02:28.380Z,20.30
2022-08-17T13:04:57.441Z,19.27
2022-08-17T13:07:35.523Z,24.63
2022-08-17T13:10:02.668Z,24.25
2022-08-17T13:12:35.888Z,22.00
2022-08-17T13:15:03.148Z,24.17
2022-08-17T13:17:36.098Z,22.05
2022-08-17T13:20:06.179Z,20.33
2022-08-17T13:22:32.841Z,21.08
2022-08-17T13:25:09.168Z,20.58
2022-08-17T13:27:35.844Z,23.13
2022-08-17T13:30:08.233Z,20.67
2022-08-17T13:32:43.937Z,21.38
2022-08-17T13:35:39.502Z,19.77
2022-08-17T13:38:16.547Z,16.25
2022-08-17T13:40:52.779Z,17.88
2022-08-17T13:43:58.120Z,17.83
2022-08-17T13:46:31.210Z,20.00
2022-08-17T13:49:04.134Z,16.48
2022-08-17T13:51:45.961Z,17.25
2022-08-17T13:54:24.612Z,23.15
2022-08-17T13:56:57.816Z,22.60
2022-08-17T13:59:38.222Z,19.17
2022-08-17T14:02:15.436Z,19.95
2022-08-17T14:04:43.285Z,19.85
2022-08-17T14:07:11.603Z,19.52
2022-08-17T14:09:43.631Z,18.67
2022-08-17T14:12:12.771Z,22.45
2022-08-17T14:14:40.807Z,21.23
2022-08-17T14:17:07.980Z,18.08
2022-08-17T14:19:35.644Z,19.30
2022-08-17T14:22:03.423Z,18.08
2022-08-17T14:24:33.389Z,18.17
2022-08-17T14:27:01.374Z,17.17
2022-08-17T14:29:30.085Z,17.52
2022-08-17T14:31:58.403Z,20.83
2022-08-17T14:34:25.806Z,17.67
2022-08-17T14:36:52.902Z,20.33
2022-08-17T14:39:20.129Z,23.10
2022-08-17T14:44:13.526Z,22.30
2022-08-17T14:46:41.600Z,22.15
2022-08-17T14:49:11.696Z,19.33
2022-08-17T14:51:43.550Z,19.27
2022-08-17T14:54:33.610Z,19.70
2022-08-17T14:57:22.877Z,22.65
2022-08-17T14:59:47.005Z,20.20
2022-08-17T15:02:13.582Z,17.30
2022-08-17T15:04:45.425Z,21.52
2022-08-17T15:07:12.456Z,22.58
2022-08-17T15:09:39.246Z,23.08
2022-08-17T15:12:06.697Z,23.17
2022-08-17T15:14:35.478Z,23.50
2022-08-17T15:17:05.715Z,25.02
2022-08-17T15:19:32.593Z,24.65
2022-08-17T15:21:59.237Z,24.67
2022-08-17T15:24:25.807Z,25.38
2022-08-17T15:26:52.344Z,21.45
2022-08-17T15:29:18.915Z,22.67
2022-08-17T15:31:45.537Z,24.10
2022-08-17T15:34:12.076Z,22.40
2022-08-17T15:36:38.884Z,23.27
2022-08-17T15:39:12.307Z,28.08
2022-08-17T15:41:38.890Z,23.52
2022-08-17T15:44:05.507Z,23.95
2022-08-17T15:46:32.113Z,21.15
2022-08-17T15:49:02.105Z,22.52
2022-08-17T15:51:34.426Z,21.45
2022-08-17T15:54:18.694Z,20.88
2022-08-17T15:56:48.876Z,21.25
2022-08-17T15:59:15.677Z,20.83
2022-08-17T16:03:14.773Z,20.92
2022-08-17T16:04:30.988Z,20.80
2022-08-17T16:06:59.713Z,21.05
2022-08-17T16:09:26.206Z,17.52
2022-08-17T16:11:55.240Z,17.63
2022-08-17T16:14:24.167Z,17.65
2022-08-17T16:16:51.017Z,19.35
2022-08-17T16:19:17.731Z,14.98
2022-08-17T16:21:44.305Z,16.38
2022-08-17T16:24:13.175Z,17.20
2022-08-17T16:26:40.502Z,16.63
2022-08-17T16:31:34.286Z,17.17
2022-08-17T16:36:53.748Z,16.80
2022-08-17T16:39:23.310Z,17.30
2022-08-17T16:41:50.426Z,17.77
2022-08-17T16:46:46.968Z,21.98
2022-08-17T16:49:36.217Z,21.25
2022-08-17T16:52:03.033Z,20.15
2022-08-17T16:54:29.963Z,19.38
2022-08-17T16:56:56.720Z,20.40
2022-08-17T16:59:30.415Z,19.27
2022-08-17T17:02:05.015Z,20.52
2022-08-17T17:04:35.298Z,16.88
2022-08-17T17:07:37.244Z,16.27
2022-08-17T17:10:20.223Z,16.70
2022-08-17T17:13:03.725Z,16.88
2022-08-17T17:16:14.723Z,16.95
2022-08-17T17:19:13.948Z,17.00
2022-08-17T17:21:59.522Z,16.20
2022-08-17T17:24:56.585Z,18.63
2022-08-17T17:27:37.699Z,17.25
2022-08-17T17:30:24.481Z,16.63
2022-08-17T17:35:49.960Z,13.98
2022-08-17T17:38:48.406Z,17.17
2022-08-17T17:41:42.775Z,16.55
2022-08-17T17:44:13.239Z,17.30
2022-08-17T17:46:50.377Z,18.33
2022-08-17T17:49:18.266Z,17.83
2022-08-17T17:52:09.981Z,14.98
2022-08-17T17:58:55.859Z,14.63
2022-08-17T18:01:56.776Z,15.32
2022-08-17T18:04:37.594Z,14.60
2022-08-17T18:07:18.011Z,16.05
2022-08-17T18:09:51.993Z,13.88
2022-08-17T18:12:40.713Z,15.60
2022-08-17T18:15:24.107Z,12.88
2022-08-17T18:18:31.187Z,15.88
2022-08-17T18:21:07.756Z,12.73
2022-08-17T18:23:34.680Z,13.07
2022-08-17T18:26:02.221Z,13.57
2022-08-17T18:28:41.109Z,16.10
2022-08-17T18:31:21.498Z,12.82
2022-08-17T18:33:54.390Z,12.90
2022-08-17T18:36:33.730Z,12.23
2022-08-17T18:39:26.490Z,12.85
2022-08-17T18:41:56.637Z,15.95
2022-08-17T18:44:35.439Z,15.20
2022-08-17T18:47:13.828Z,17.42
2022-08-17T18:49:49.063Z,15.95
2022-08-17T18:52:21.777Z,16.48
2022-08-17T18:55:09.049Z,17.45
2022-08-17T18:57:43.702Z,15.85
2022-08-17T19:00:33.349Z,21.95
2022-08-17T19:03:02.521Z,16.30
2022-08-17T19:05:33.234Z,18.23
2022-08-17T19:08:29.910Z,15.35
2022-08-17T19:11:07.401Z,16.52
2022-08-17T19:13:50.751Z,19.90
2022-08-17T19:16:29.718Z,16.92
2022-08-17T19:19:07.776Z,14.90
2022-08-17T19:21:40.319Z,14.55
2022-08-17T19:24:22.206Z,14.82
2022-08-17T19:27:06.230Z,14.68
2022-08-17T19:29:41.487Z,13.85
2022-08-17T19:32:09.557Z,14.18
2022-08-17T19:34:37.651Z,13.73
2022-08-17T19:37:23.916Z,15.55
2022-08-17T19:39:53.541Z,14.40
2022-08-17T19:42:47.719Z,13.80
2022-08-17T19:45:18.198Z,13.88
2022-08-17T19:48:03.061Z,13.90
2022-08-17T19:50:56.539Z,12.07
2022-08-17T19:54:07.127Z,13.38
2022-08-17T19:56:55.821Z,14.55
2022-08-17T19:59:48.329Z,11.60
2022-08-17T20:02:32.752Z,13.48
2022-08-17T20:05:05.016Z,12.57
2022-08-17T20:07:51.931Z,13.45
2022-08-17T20:10:54.922Z,13.25
2022-08-17T20:13:39.193Z,13.57
2022-08-17T20:16:06.564Z,12.95
2022-08-17T20:18:59.335Z,14.43
2022-08-17T20:21:35.167Z,14.32
2022-08-17T20:24:28.721Z,14.60
2022-08-17T20:26:59.639Z,13.05
2022-08-17T20:29:39.715Z,12.20
2022-08-17T20:32:47.756Z,13.25
2022-08-17T20:35:30.513Z,13.10
2022-08-17T20:38:11.068Z,13.48
2022-08-17T20:41:10.133Z,13.32
2022-08-17T20:43:37.271Z,13.25
2022-08-17T20:46:22.099Z,12.35
2022-08-17T20:48:53.558Z,12.60
2022-08-17T20:51:27.242Z,15.25
2022-08-17T20:53:53.790Z,12.98
2022-08-17T20:56:42.416Z,14.35
2022-08-17T20:59:31.603Z,15.00
2022-08-17T21:02:17.615Z,13.60
2022-08-17T21:07:47.036Z,16.92
2022-08-17T21:10:25.764Z,14.05
2022-08-17T21:13:08.255Z,14.32
2022-08-17T21:15:50.392Z,13.30
2022-08-17T21:18:45.709Z,13.32
2022-08-17T21:21:18.431Z,17.98
2022-08-17T21:24:12.922Z,13.57
2022-08-17T21:27:14.063Z,15.18
2022-08-17T21:30:16.785Z,17.02
2022-08-17T21:33:16.736Z,16.33
2022-08-17T21:35:47.340Z,15.50
2022-08-17T21:38:16.123Z,16.65
2022-08-17T21:40:50.121Z,15.95
2022-08-17T21:43:29.369Z,16.20
2022-08-17T21:46:00.831Z,15.88
2022-08-17T21:48:29.288Z,16.02
2022-08-17T21:51:28.230Z,16.30
2022-08-17T21:53:58.112Z,16.80
2022-08-17T21:56:33.684Z,16.33
2022-08-17T21:59:07.610Z,16.60
2022-08-17T22:01:37.741Z,16.30
2022-08-17T22:04:11.425Z,16.33
2022-08-17T22:06:56.470Z,17.35
2022-08-17T22:09:41.486Z,17.50
2022-08-17T22:12:16.600Z,16.90
2022-08-17T22:14:57.887Z,18.38
2022-08-17T22:17:36.995Z,18.63
2022-08-17T22:20:15.020Z,16.88
2022-08-17T22:23:20.292Z,19.13
2022-08-17T22:26:09.584Z,18.25
2022-08-17T22:28:43.104Z,17.27
2022-08-17T22:31:14.550Z,16.90
2022-08-17T22:33:41.244Z,18.05
2022-08-17T22:36:09.114Z,18.27
2022-08-17T22:38:37.715Z,19.60
2022-08-17T22:43:50.701Z,20.20
2022-08-17T22:46:22.289Z,20.02
2022-08-17T22:48:54.828Z,19.90
2022-08-17T22:51:24.336Z,20.13
2022-08-17T22:54:17.317Z,20.35
2022-08-17T22:57:18.876Z,21.55
2022-08-17T22:59:47.714Z,22.20
2022-08-17T23:02:23.913Z,22.95
2022-08-17T23:04:54.750Z,23.33
2022-08-17T23:07:21.708Z,24.52
2022-08-17T23:09:48.386Z,24.85
2022-08-17T23:12:20.829Z,25.13
2022-08-17T23:14:51.338Z,25.00
2022-08-17T23:17:18.175Z,25.83
2022-08-17T23:19:45.127Z,25.43
2022-08-17T23:22:11.994Z,25.50
2022-08-17T23:24:43.919Z,25.10
2022-08-17T23:27:11.739Z,26.75
2022-08-17T23:29:41.391Z,24.92
2022-08-17T23:32:11.737Z,25.58
2022-08-17T23:34:39.850Z,25.80
2022-08-17T23:37:07.674Z,25.70
2022-08-17T23:39:34.765Z,26.63
2022-08-17T23:42:05.387Z,27.40
2022-08-17T23:44:32.943Z,26.92
2022-08-17T23:49:26.182Z,28.80
2022-08-17T23:51:54.847Z,27.30
2022-08-17T23:54:29.454Z,27.75
2022-08-17T23:56:56.363Z,26.98
